KUVA/UVA METAR and TAF weather

Enter ICAO airport designator
Station Type Date Time Source
KUVA METAR 2019/05/23 19:35 UTC NOAA

KUVA 231935Z AUTO 13013G18KT 10SM SCT048 SCT050 32/21 A2988 RMK AO2 T03190212


Station Type Date Time Source
KUVA Decoded METAR 2019/05/23 19:35 UTC NOAA

Uvalde, Garner Field Airport, TX, United States (KUVA) 29-12-40N 099-44-36W
May 23, 2019 - 03:35 PM EDT / 2019.05.23 1935 UTC
Wind: from the SE (130 degrees) at 15 MPH (13 KT) gusting to 21 MPH (18 KT):0
Visibility: 10 mile(s):0
Sky conditions: partly cloudy
Temperature: 89.4 F (31.9 C)
Heat index: 94.8 F (34.9 C):1
Dew Point: 70.2 F (21.2 C)
Relative Humidity: 53%
Pressure (altimeter): 29.88 in. Hg (1011 hPa)
ob: KUVA 231935Z AUTO 13013G18KT 10SM SCT048 SCT050 32/21 A2988 RMK AO2 T03190212
cycle: 19

Station Type Date Time Source
KUVA TAF UTC NOAA

Error!

Example: see airport list